Latest Weather Observations for Campania

IDT60901

Issued at 11:01 pm EST Friday 17 August 2018 (issued every 10 minutes, with the page automatically refreshed every 10 minutes)

About weather observations | Map of Hobart area stations | Latest observations for Hobart area | Other Formats
Station Details ID: 094212 Name: CAMPANIA (KINCORA) Lat: -42.69 Lon: 147.43 Height: 45.0 m
Data from the previous 72 hours. | See also: Recent months at Campania
Date/Time
EST
Temp
°C
App
Temp
°C
Dew
Point
°C
Rel
Hum
%
Delta-T
°C
Wind Press
QNH
hPa
Press
MSL
hPa
Rain since
9am
mm
Dir  Spd
km/h
Gust
km/h
Spd
kts
Gust
kts
17/11:00pm 11.0 6.4 6.7 75 2.0 N 20 28 11 15 - - 0.0
17/10:30pm 10.6 6.7 6.9 78 1.8 N 17 26 9 14 - - 0.0
17/10:00pm 10.8 6.3 6.9 77 1.9 N 20 26 11 14 - - 0.0
17/09:30pm 10.6 5.7 6.7 77 1.8 N 22 28 12 15 - - 0.0
17/09:00pm 10.1 5.5 6.6 79 1.6 N 20 24 11 13 - - 0.0
17/08:30pm 10.5 5.5 6.3 75 2.0 N 22 30 12 16 - - 0.0
17/08:00pm 11.0 5.2 6.2 72 2.2 N 26 35 14 19 - - 0.0
17/07:30pm 11.3 5.1 6.0 70 2.5 N 28 39 15 21 - - 0.0
17/07:00pm 11.5 6.9 5.6 67 2.7 N 19 28 10 15 - - 0.0
17/06:30pm 11.5 6.7 5.4 66 2.8 N 20 30 11 16 - - 0.0
17/06:00pm 12.1 6.1 5.3 63 3.1 N 26 35 14 19 - - 0.0
17/05:30pm 12.7 7.4 5.1 60 3.5 N 22 35 12 19 - - 0.0
17/05:00pm 13.3 8.7 3.9 53 4.3 N 17 22 9 12 - - 0.0
17/04:30pm 14.1 10.8 4.7 53 4.4 N 11 17 6 9 - - 0.0
17/04:00pm 14.8 10.0 4.5 50 4.8 NNW 19 28 10 15 - - 0.0
17/03:30pm 15.8 10.9 4.2 46 5.4 NNW 19 28 10 15 - - 0.0
17/03:00pm 15.0 9.1 3.8 47 5.1 NW 24 33 13 18 - - 0.0
17/02:30pm 15.8 10.8 4.5 47 5.3 N 20 30 11 16 - - 0.0
17/02:00pm 15.3 10.4 4.1 47 5.2 NW 19 35 10 19 - - 0.0
17/01:30pm 15.2 9.2 3.4 45 5.4 NNW 24 35 13 19 - - 0.0
17/01:00pm 14.7 9.1 3.5 47 5.1 NNW 22 37 12 20 - - 0.0
17/12:30pm 14.1 7.8 3.6 49 4.8 NW 26 37 14 20 - - 0.0
17/12:00pm 13.6 6.8 3.1 49 4.7 NNW 28 39 15 21 - - 0.0
17/11:30am 12.8 7.5 3.2 52 4.3 NNW 20 39 11 21 - - 0.0
17/11:00am 12.9 8.3 3.8 54 4.1 NNW 17 28 9 15 - - 0.0
17/10:30am 11.1 6.0 3.2 58 3.5 NNW 19 26 10 14 - - 0.0
17/10:00am 9.9 4.7 3.4 64 2.8 N 20 30 11 16 - - 0.0
17/09:30am 8.9 2.8 2.5 64 2.7 N 24 33 13 18 - - 0.0
17/09:00am 8.3 2.5 2.1 65 2.6 N 22 32 12 17 - - 0.2
17/08:30am 7.5 1.6 2.0 68 2.3 N 22 30 12 16 - - 0.2
17/08:00am 7.2 2.4 2.5 72 2.0 N 17 24 9 13 - - 0.2
17/07:30am 6.8 3.1 2.1 72 1.9 NNW 11 13 6 7 - - 0.2
17/07:00am 6.2 0.7 2.1 75 1.7 N 20 26 11 14 - - 0.2
17/06:30am 6.6 1.3 1.7 71 2.0 N 19 26 10 14 - - 0.2
17/06:00am 6.9 2.3 1.8 70 2.1 N 15 22 8 12 - - 0.2
17/05:30am 6.7 0.4 1.6 70 2.1 N 24 30 13 16 - - 0.2
17/05:00am 6.8 2.3 1.9 71 2.0 N 15 24 8 13 - - 0.2
17/04:30am 6.8 2.6 1.9 71 2.0 N 13 20 7 11 - - 0.2
17/04:00am 6.9 3.6 2.2 72 1.9 N 9 15 5 8 - - 0.2
17/03:30am 7.0 3.3 2.3 72 1.9 N 11 17 6 9 - - 0.2
17/03:00am 6.3 1.9 2.6 77 1.5 N 15 17 8 9 - - 0.2
17/02:30am 5.4 2.1 2.2 80 1.3 N 9 11 5 6 - - 0.2
17/02:00am 5.4 2.1 2.2 80 1.3 NNW 9 11 5 6 - - 0.2
17/01:30am 5.9 2.6 2.7 80 1.3 NNW 9 11 5 6 - - 0.2
17/01:00am 5.4 2.1 2.2 80 1.3 NE 9 11 5 6 - - 0.2
17/12:30am 5.8 2.5 2.4 79 1.4 NNE 9 11 5 6 - - 0.2
17/12:00am 5.7 2.0 2.2 78 1.4 N 11 17 6 9 - - 0.2
 
Date/Time
EST
Temp
°C
App
Temp
°C
Dew
Point
°C
Rel
Hum
%
Delta-T
°C
Wind Press
QNH
hPa
Press
MSL
hPa
Rain since
9am
mm
Dir  Spd
km/h
Gust
km/h
Spd
kts
Gust
kts
16/11:30pm 5.7 2.0 2.4 79 1.3 N 11 17 6 9 - - 0.2
16/11:00pm 6.3 3.3 2.0 74 1.7 NW 7 11 4 6 - - 0.2
16/10:30pm 5.9 2.6 2.2 77 1.5 NW 9 11 5 6 - - 0.2
16/10:00pm 6.5 3.2 2.6 76 1.6 NNW 9 11 5 6 - - 0.2
16/09:30pm 6.7 2.7 2.8 76 1.6 NNW 13 17 7 9 - - 0.2
16/09:00pm 8.0 3.7 3.3 72 2.0 NNW 15 19 8 10 - - 0.2
16/08:30pm 8.3 4.4 3.4 71 2.1 N 13 15 7 8 - - 0.2
16/08:00pm 8.6 4.7 3.2 69 2.3 N 13 17 7 9 - - 0.2
16/07:30pm 8.9 4.9 2.7 65 2.6 N 13 22 7 12 - - 0.2
16/07:00pm 9.1 4.6 2.4 63 2.8 WNW 15 26 8 14 - - 0.2
16/06:30pm 9.2 4.7 2.1 61 3.0 WNW 15 24 8 13 - - 0.2
16/06:00pm 9.5 5.0 2.1 60 3.1 WNW 15 26 8 14 - - 0.2
16/05:30pm 9.6 5.9 2.5 61 3.0 NNW 11 20 6 11 - - 0.2
16/05:00pm 9.9 5.5 2.7 61 3.1 NW 15 28 8 15 - - 0.2
16/04:30pm 10.4 4.3 2.5 58 3.4 W 24 35 13 19 - - 0.2
16/04:00pm 10.2 3.3 2.8 60 3.2 W 28 44 15 24 - - 0.2
16/03:30pm 11.6 6.3 2.9 55 3.8 W 20 33 11 18 - - 0.2
16/03:00pm 11.2 3.5 2.5 55 3.8 W 32 48 17 26 - - 0.2
16/02:56pm 11.3 4.1 2.9 56 3.7 W 30 48 16 26 - - 0.2
16/02:30pm 11.2 5.2 3.5 59 3.4 W 24 37 13 20 - - 0.2
16/02:00pm 11.5 4.4 3.3 57 3.6 W 30 44 16 24 - - 0.2
16/01:30pm 11.2 4.0 3.0 57 3.6 W 30 41 16 22 - - 0.2
16/01:00pm 11.1 3.1 3.6 60 3.3 W 35 61 19 33 - - 0.2
16/12:30pm 11.6 3.4 2.6 54 3.9 W 35 54 19 29 - - 0.2
16/12:00pm 12.3 4.6 3.5 55 3.9 W 33 54 18 29 - - 0.2
16/11:30am 11.0 3.2 2.6 56 3.6 WSW 33 52 18 28 - - 0.2
16/11:12am 10.8 3.9 2.4 56 3.6 W 28 48 15 26 - - 0.2
16/11:00am 11.0 4.6 3.1 58 3.4 W 26 37 14 20 - - 0.2
16/10:30am 9.7 2.0 2.1 59 3.2 W 32 44 17 24 - - 0.2
16/10:00am 9.5 4.4 2.8 63 2.9 W 19 30 10 16 - - 0.2
16/09:48am 8.6 1.7 2.8 67 2.5 W 28 46 15 25 - - 0.2
16/09:30am 9.3 4.2 3.3 66 2.6 WNW 19 32 10 17 - - 0.2
16/09:00am 8.1 3.4 3.4 72 2.0 NNW 17 28 9 15 - - 11.4
16/08:30am 8.0 1.9 2.9 70 2.2 WNW 24 37 13 20 - - 11.4
16/08:00am 8.2 2.9 3.1 70 2.2 WNW 20 32 11 17 - - 11.2
16/07:30am 8.0 3.3 3.1 71 2.1 WNW 17 22 9 12 - - 11.2
16/07:00am 7.9 2.8 2.8 70 2.1 WNW 19 30 10 16 - - 11.0
16/06:30am 7.4 2.7 3.1 74 1.8 WNW 17 24 9 13 - - 11.0
16/06:00am 7.7 3.0 3.2 73 1.9 W 17 24 9 13 - - 11.0
16/05:30am 7.9 2.5 2.2 67 2.4 WNW 20 30 11 16 - - 10.8
16/05:00am 8.1 2.3 2.1 66 2.5 WNW 22 35 12 19 - - 10.8
16/04:30am 8.2 2.7 2.0 65 2.6 WNW 20 30 11 16 - - 10.8
16/04:00am 8.3 3.0 2.1 65 2.6 WNW 19 30 10 16 - - 10.8
16/03:30am 8.6 2.9 2.6 66 2.5 W 22 35 12 19 - - 10.8
16/03:00am 8.5 2.5 3.1 69 2.3 W 24 33 13 18 - - 10.8
16/02:30am 8.5 3.9 3.6 71 2.1 WNW 17 28 9 15 - - 10.8
16/02:00am 8.1 3.4 3.4 72 2.0 WNW 17 28 9 15 - - 10.8
16/01:30am 7.4 4.4 4.0 79 1.5 N 9 15 5 8 - - 10.8
16/01:00am 7.9 3.4 4.3 78 1.6 WNW 17 26 9 14 - - 10.8
16/12:30am 7.8 4.1 4.6 80 1.4 NW 13 26 7 14 - - 9.6
16/12:00am 7.8 3.7 4.6 80 1.4 NW 15 24 8 13 - - 8.6
 
Date/Time
EST
Temp
°C
App
Temp
°C
Dew
Point
°C
Rel
Hum
%
Delta-T
°C
Wind Press
QNH
hPa
Press
MSL
hPa
Rain since
9am
mm
Dir  Spd
km/h
Gust
km/h
Spd
kts
Gust
kts
15/11:30pm 8.1 3.2 3.9 75 1.8 WNW 19 28 10 15 - - 7.8
15/11:00pm 7.1 4.1 3.9 80 1.4 NNW 9 13 5 7 - - 7.8
15/10:30pm 7.4 3.2 3.8 78 1.5 NNW 15 26 8 14 - - 7.8
15/10:00pm 7.3 2.3 3.7 78 1.5 NNW 19 24 10 13 - - 7.6
15/09:30pm 7.5 1.9 3.6 76 1.7 NW 22 37 12 20 - - 7.0
15/09:00pm 7.4 1.5 4.0 79 1.5 NW 24 44 13 24 - - 6.8
15/08:30pm 6.7 1.5 3.3 79 1.4 NNW 20 32 11 17 - - 5.8
15/08:00pm 7.5 0.0 3.4 75 1.7 NW 32 46 17 25 - - 5.8
15/07:33pm 8.5 1.7 2.9 68 2.4 NW 28 46 15 25 - - 5.0
15/07:30pm 8.4 0.8 3.1 69 2.3 NW 32 46 17 25 - - 5.0
15/07:00pm 8.4 1.5 2.4 66 2.5 NW 28 43 15 23 - - 5.0
15/06:30pm 7.8 1.7 2.5 69 2.2 NNW 24 35 13 19 - - 5.0
15/06:00pm 8.2 2.0 2.4 67 2.4 NNW 24 35 13 19 - - 5.0
15/05:30pm 7.6 2.5 3.1 73 1.9 NW 19 30 10 16 - - 5.0
15/05:00pm 8.4 0.7 3.3 70 2.2 NW 33 46 18 25 - - 5.0
15/04:30pm 9.0 2.4 2.1 62 2.9 NW 26 37 14 20 - - 4.8
15/04:01pm 9.8 3.0 2.9 62 3.0 NW 28 52 15 28 - - 4.8
15/04:00pm 9.9 3.5 3.4 64 2.8 NW 26 43 14 23 - - 4.8
15/03:30pm 9.8 5.4 5.0 72 2.2 NW 17 28 9 15 - - 4.8
15/03:00pm 8.9 2.5 5.3 78 1.6 NW 28 39 15 21 - - 4.8
15/02:30pm 9.7 2.7 4.3 69 2.4 NW 30 39 16 21 - - 4.6
15/02:00pm 8.6 3.6 4.6 76 1.8 NW 20 43 11 23 - - 4.4
15/01:30pm 9.9 4.5 4.5 69 2.4 NW 22 35 12 19 - - 3.0
15/01:00pm 10.3 4.1 4.2 66 2.7 NW 26 39 14 21 - - 3.0
15/12:30pm 9.2 3.6 5.4 77 1.7 NNW 24 39 13 21 - - 3.0
15/12:09pm 8.3 1.3 4.1 75 1.8 NNW 30 52 16 28 - - 3.0
15/12:00pm 8.6 3.3 4.8 77 1.7 N 22 37 12 20 - - 2.6
15/11:34am 9.8 2.4 4.2 68 2.5 NW 32 50 17 27 - - 2.4
15/11:30am 10.2 5.4 5.4 72 2.2 W 20 33 11 18 - - 2.2
15/11:00am 10.0 4.4 5.2 72 2.2 WNW 24 41 13 22 - - 2.2
15/10:30am 10.4 4.0 5.0 69 2.4 NW 28 50 15 27 - - 1.6
15/10:00am 8.9 2.1 4.9 76 1.8 NNW 30 48 16 26 - - 1.6
15/09:30am 8.9 1.5 4.1 72 2.1 NNW 32 59 17 32 - - 1.2
15/09:08am 9.2 2.5 3.8 69 2.4 NNW 28 48 15 26 - - 0.2
15/09:00am 9.4 4.0 4.6 72 2.1 N 22 35 12 19 - - 6.4
15/08:41am 8.0 2.9 4.2 77 1.7 NNW 20 43 11 23 - - 6.4
15/08:30am 7.9 -0.9 3.8 75 1.8 WNW 39 70 21 38 - - 6.0
15/08:20am 9.0 0.5 3.4 68 2.4 WNW 37 69 20 37 - - 5.2
15/08:01am 9.6 2.9 3.8 67 2.5 NNW 28 46 15 25 - - 4.8
15/08:00am 9.5 2.8 3.9 68 2.5 NNW 28 37 15 20 - - 4.8
15/07:38am 8.6 1.1 3.4 70 2.2 NNW 32 50 17 27 - - 4.8
15/07:30am 8.4 1.0 4.0 74 1.9 NW 32 44 17 24 - - 4.6
15/07:07am 9.9 3.2 3.4 64 2.8 NW 28 50 15 27 - - 2.8
15/07:00am 9.4 5.2 3.6 67 2.5 N 15 20 8 11 - - 2.8
15/06:31am 9.4 1.9 3.2 65 2.7 NW 32 50 17 27 - - 2.8
15/06:30am 9.5 1.7 3.0 64 2.8 WNW 33 50 18 27 - - 2.8
15/06:08am 9.2 -0.9 3.6 68 2.4 NW 46 76 25 41 - - 2.6
15/06:05am 10.2 2.5 3.3 62 3.0 N 33 61 18 33 - - 2.6
15/06:00am 9.8 2.7 3.3 64 2.8 N 30 41 16 22 - - 2.6
15/05:33am 10.2 2.1 3.0 61 3.1 NNW 35 59 19 32 - - 2.6
15/05:30am 10.1 2.6 3.6 64 2.8 N 32 46 17 25 - - 2.6
15/05:26am 10.5 3.8 3.5 62 3.1 N 28 46 15 25 - - 2.6
15/05:00am 9.2 2.5 5.6 78 1.6 W 30 39 16 21 - - 2.4
15/04:34am 11.5 4.8 3.5 58 3.5 NW 28 57 15 31 - - 2.2
15/04:30am 11.4 5.6 4.6 63 3.1 NW 24 39 13 21 - - 2.2
15/04:00am 11.8 1.0 5.9 67 2.8 NW 52 91 28 49 - - 2.2
15/03:55am 12.1 2.5 6.4 68 2.7 NW 46 91 25 49 - - 2.2
15/03:30am 13.5 4.2 5.9 60 3.6 NNW 44 69 24 37 - - 0.2
15/03:00am 15.3 5.2 3.5 45 5.4 NNW 46 67 25 36 - - 0.0
15/02:30am 14.8 5.2 3.6 47 5.1 NNW 43 74 23 40 - - 0.0
15/02:03am 14.7 5.6 3.8 48 5.0 NNW 41 59 22 32 - - 0.0
15/02:00am 14.9 5.2 4.0 48 5.0 NNW 44 59 24 32 - - 0.0
15/01:30am 15.6 5.8 3.4 44 5.6 NNW 44 80 24 43 - - 0.0
15/01:00am 14.9 5.4 3.7 47 5.1 N 43 69 23 37 - - 0.0
15/12:30am 15.7 4.4 3.5 44 5.6 NNW 52 83 28 45 - - 0.0
15/12:00am 15.3 5.6 3.8 46 5.3 NNW 44 76 24 41 - - 0.0
 
Date/Time
EST
Temp
°C
App
Temp
°C
Dew
Point
°C
Rel
Hum
%
Delta-T
°C
Wind Press
QNH
hPa
Press
MSL
hPa
Rain since
9am
mm
Dir  Spd
km/h
Gust
km/h
Spd
kts
Gust
kts
14/11:30pm 14.8 5.3 3.9 48 5.0 NNW 43 65 23 35 - - 0.0

Latest Capital City Observations: Canberra | Sydney | Melbourne | Brisbane | Adelaide | Perth | Hobart | Darwin

Other Formats:

Comma delimited format used in spreadsheet applications
http://www.bom.gov.au/fwo/IDT60901/IDT60901.95972.axf

JavaScript Object Notation format (JSON) in row-major order
http://www.bom.gov.au/fwo/IDT60901/IDT60901.95972.json